Time;durP1;ratioP1;P1;durP2;ratioP2;P2;SDS_P1;SDS_P2;PMS_P1;PMS_P2;Temp;Humidity;BMP_temperature;BMP_pressure;BME280_temperature;BME280_humidity;BME280_pressure;Samples;Min_cycle;Max_cycle;Signal;HPM_P1;HPM_P2
2022/10/13 00:01:55;;;;;;;16.77;10.05;;;12.50;83.00;;;;;;5034962;28;20099;-78
2022/10/13 00:04:20;;;;;;;11.73;8.50;;;12.50;82.80;;;;;;5034356;28;20018;-77
2022/10/13 00:06:46;;;;;;;15.85;8.50;;;12.50;82.60;;;;;;5035832;28;20033;-78
2022/10/13 00:09:12;;;;;;;22.95;10.95;;;12.50;82.40;;;;;;5034535;28;20025;-78
2022/10/13 00:11:37;;;;;;;22.40;10.95;;;12.50;82.30;;;;;;5035817;28;20061;-78
2022/10/13 00:14:03;;;;;;;16.65;9.68;;;12.20;82.90;;;;;;5034361;28;20394;-78
2022/10/13 00:16:31;;;;;;;14.60;9.18;;;12.20;83.00;;;;;;5036328;28;20029;-79
2022/10/13 00:18:57;;;;;;;21.80;12.48;;;12.30;83.20;;;;;;5042010;28;20075;-77
2022/10/13 00:21:25;;;;;;;18.90;10.82;;;12.30;83.20;;;;;;5037760;28;20132;-78
2022/10/13 00:23:53;;;;;;;18.90;10.43;;;12.20;83.50;;;;;;5035573;28;20041;-77
2022/10/13 00:26:21;;;;;;;15.70;9.40;;;12.30;83.50;;;;;;5033940;28;20057;-77
2022/10/13 00:28:47;;;;;;;15.18;9.70;;;12.40;83.40;;;;;;5033768;28;20029;-78
2022/10/13 00:31:21;;;;;;;16.85;10.10;;;12.40;83.30;;;;;;5035304;28;20036;-77
2022/10/13 00:33:48;;;;;;;18.45;11.63;;;12.50;83.20;;;;;;5034096;28;20025;-77
2022/10/13 00:36:14;;;;;;;16.95;10.60;;;12.50;83.90;;;;;;5033948;28;20025;-78
2022/10/13 00:38:40;;;;;;;19.95;11.32;;;12.50;83.00;;;;;;5034057;28;20056;-77
2022/10/13 00:41:07;;;;;;;16.42;11.18;;;12.50;83.10;;;;;;5033699;28;20021;-78
2022/10/13 00:44:29;;;;;;;12.40;9.57;;;12.50;83.10;;;;;;5034261;28;20132;-78
2022/10/13 00:46:55;;;;;;;15.25;10.40;;;12.50;83.50;;;;;;4957968;28;20113;-78
2022/10/13 00:49:20;;;;;;;17.00;9.50;;;12.50;83.20;;;;;;4957376;28;20150;-78
2022/10/13 00:51:49;;;;;;;13.02;8.73;;;12.50;83.20;;;;;;5001324;28;20452;-78
2022/10/13 00:54:19;;;;;;;15.20;10.27;;;12.60;84.00;;;;;;5033830;28;20047;-78
2022/10/13 00:56:45;;;;;;;15.65;9.35;;;12.60;83.10;;;;;;5033738;28;20032;-78
2022/10/13 00:59:23;;;;;;;14.88;8.43;;;12.60;83.10;;;;;;5033648;28;20032;-78
2022/10/13 01:01:50;;;;;;;14.35;8.80;;;12.70;83.20;;;;;;5033164;28;20029;-79
2022/10/13 01:04:18;;;;;;;16.45;8.38;;;12.70;83.10;;;;;;5034737;28;20101;-79
2022/10/13 01:06:46;;;;;;;15.77;9.80;;;12.80;83.00;;;;;;5034741;28;20040;-79
2022/10/13 01:09:11;;;;;;;18.23;10.05;;;12.80;83.00;;;;;;5033553;28;20473;-79
2022/10/13 01:11:56;;;;;;;15.23;9.27;;;12.90;83.00;;;;;;5033492;28;20026;-79
2022/10/13 01:14:42;;;;;;;16.60;10.18;;;12.90;83.00;;;;;;5033626;28;20053;-80
2022/10/13 01:17:08;;;;;;;14.20;9.70;;;12.90;82.90;;;;;;5033365;28;20026;-80
2022/10/13 01:19:55;;;;;;;18.52;11.75;;;13.00;82.70;;;;;;5033212;28;20386;-79
2022/10/13 01:22:26;;;;;;;15.18;10.65;;;13.00;82.60;;;;;;5033134;28;20060;-79
2022/10/13 01:25:15;;;;;;;13.77;10.00;;;13.00;82.40;;;;;;5033010;28;20045;-78
2022/10/13 01:27:59;;;;;;;14.05;8.98;;;12.90;82.40;;;;;;5032893;28;20545;-79
2022/10/13 01:30:25;;;;;;;12.07;8.30;;;12.90;82.80;;;;;;5032934;28;20029;-79
2022/10/13 01:33:13;;;;;;;16.95;10.98;;;12.90;82.90;;;;;;5032984;28;20112;-78
2022/10/13 01:35:55;;;;;;;16.92;10.93;;;12.90;83.10;;;;;;5033164;28;20496;-78
2022/10/13 01:38:34;;;;;;;13.55;9.15;;;12.80;83.30;;;;;;5033129;28;20036;-77
2022/10/13 01:41:08;;;;;;;15.88;9.60;;;12.80;83.30;;;;;;5032845;28;20108;-78
2022/10/13 01:43:47;;;;;;;20.88;11.50;;;12.80;83.30;;;;;;5032699;28;20029;-78
2022/10/13 01:46:35;;;;;;;20.15;12.02;;;12.70;83.20;;;;;;5032959;28;20034;-77
2022/10/13 01:49:04;;;;;;;21.27;12.30;;;12.70;83.40;;;;;;5032766;28;20076;-77
2022/10/13 01:51:32;;;;;;;17.50;10.45;;;12.60;83.30;;;;;;5032736;28;20022;-78
2022/10/13 01:53:57;;;;;;;18.73;11.65;;;12.60;83.30;;;;;;5032592;28;20031;-78
2022/10/13 01:56:23;;;;;;;21.48;12.25;;;12.60;83.30;;;;;;5032747;28;20385;-78
2022/10/13 01:58:51;;;;;;;18.55;11.88;;;12.70;83.40;;;;;;5032703;28;20041;-77
2022/10/13 02:01:37;;;;;;;18.95;13.07;;;12.60;84.60;;;;;;5032170;28;20021;-79
2022/10/13 02:04:34;;;;;;;18.58;11.50;;;12.60;83.70;;;;;;5032597;28;20133;-79
2022/10/13 02:07:12;;;;;;;;;;;12.50;84.20;;;;;;5033179;28;20111;-78
2022/10/13 02:09:41;;;;;;;18.67;11.82;;;12.50;83.90;;;;;;5032780;28;20266;-79
2022/10/13 02:12:32;;;;;;;20.30;11.98;;;12.50;83.80;;;;;;5031950;28;20022;-79
2022/10/13 02:14:59;;;;;;;18.48;11.55;;;12.60;83.70;;;;;;4995531;28;20033;-79
2022/10/13 02:17:26;;;;;;;21.50;10.40;;;12.60;83.70;;;;;;5032525;28;20029;-78
2022/10/13 02:19:53;;;;;;;17.70;11.63;;;12.50;83.70;;;;;;5032301;28;20025;-77
2022/10/13 02:22:23;;;;;;;19.42;10.70;;;12.50;83.70;;;;;;5032189;28;20044;-78
2022/10/13 02:24:48;;;;;;;21.55;11.68;;;12.50;83.50;;;;;;5038073;28;20367;-78
2022/10/13 02:27:14;;;;;;;15.73;9.68;;;12.60;83.90;;;;;;5032238;28;20119;-77
2022/10/13 02:29:52;;;;;;;16.05;9.30;;;12.60;83.60;;;;;;5031644;28;20033;-77
2022/10/13 02:32:19;;;;;;;17.45;9.95;;;12.70;83.70;;;;;;5031630;28;20083;-77
2022/10/13 02:34:44;;;;;;;13.50;9.43;;;12.70;83.60;;;;;;5032229;28;20022;-78
2022/10/13 02:37:11;;;;;;;19.58;10.30;;;12.80;83.20;;;;;;5031919;28;20536;-79
2022/10/13 02:39:36;;;;;;;18.58;9.63;;;12.80;82.80;;;;;;5031915;28;20021;-78
2022/10/13 02:42:02;;;;;;;12.65;8.43;;;12.80;83.00;;;;;;5031715;28;20076;-78
2022/10/13 02:44:28;;;;;;;15.05;9.48;;;12.80;82.80;;;;;;5032068;28;20033;-79
2022/10/13 02:46:54;;;;;;;13.32;8.60;;;12.80;82.80;;;;;;5032024;28;20382;-79
2022/10/13 02:49:19;;;;;;;16.77;9.07;;;12.80;82.80;;;;;;5031896;28;20034;-80
2022/10/13 02:51:45;;;;;;;13.43;8.60;;;12.80;82.60;;;;;;5031710;28;20367;-78
2022/10/13 02:54:10;;;;;;;13.43;8.07;;;12.90;82.70;;;;;;5031690;28;20021;-78
2022/10/13 02:56:36;;;;;;;11.35;6.82;;;12.90;82.60;;;;;;5031623;28;20071;-78
2022/10/13 02:59:02;;;;;;;11.23;7.70;;;12.80;82.50;;;;;;5032054;28;20061;-78
2022/10/13 03:01:27;;;;;;;10.18;6.47;;;12.90;82.70;;;;;;5031758;28;20038;-78
2022/10/13 03:03:53;;;;;;;13.85;7.68;;;13.00;82.60;;;;;;5031782;28;20487;-78
2022/10/13 03:06:18;;;;;;;11.38;7.05;;;13.00;82.40;;;;;;5031693;28;20028;-78
2022/10/13 03:08:44;;;;;;;12.23;7.03;;;13.00;82.30;;;;;;5031741;28;20029;-78
2022/10/13 03:11:10;;;;;;;14.15;7.35;;;13.00;82.20;;;;;;5031534;28;20061;-78
2022/10/13 03:13:36;;;;;;;17.48;7.75;;;13.00;82.00;;;;;;5031726;28;20120;-79
2022/10/13 03:16:02;;;;;;;11.60;7.45;;;13.10;82.00;;;;;;5031710;28;20363;-79
2022/10/13 03:18:28;;;;;;;12.18;8.15;;;13.00;81.90;;;;;;5031586;28;20032;-79
2022/10/13 03:21:05;;;;;;;12.15;6.38;;;13.00;81.90;;;;;;5031604;28;20605;-79
2022/10/13 03:23:32;;;;;;;15.05;7.65;;;13.00;82.80;;;;;;5032275;28;20029;-79
2022/10/13 03:25:58;;;;;;;13.30;6.30;;;12.90;82.10;;;;;;5035779;28;20041;-79
2022/10/13 03:28:24;;;;;;;15.00;8.02;;;12.90;82.20;;;;;;5035244;28;20050;-79
2022/10/13 03:30:49;;;;;;;12.05;7.05;;;12.90;82.20;;;;;;5035157;28;20030;-78
2022/10/13 03:33:15;;;;;;;13.93;6.38;;;12.80;82.10;;;;;;5035586;28;20022;-78
2022/10/13 03:35:40;;;;;;;14.55;7.95;;;12.70;82.20;;;;;;5035152;28;20386;-78
2022/10/13 03:38:06;;;;;;;11.50;8.07;;;12.70;82.30;;;;;;5034774;28;20116;-79
2022/10/13 03:40:34;;;;;;;13.20;7.68;;;12.70;82.40;;;;;;5034809;28;20541;-79
2022/10/13 03:43:00;;;;;;;13.82;7.68;;;12.50;82.40;;;;;;5035023;28;20033;-79
2022/10/13 03:45:26;;;;;;;13.23;7.22;;;12.50;82.40;;;;;;5034756;28;20051;-79
2022/10/13 03:47:51;;;;;;;15.20;7.88;;;12.40;82.60;;;;;;5034750;28;20036;-79
2022/10/13 03:50:17;;;;;;;12.70;8.20;;;12.30;82.90;;;;;;5034635;28;20056;-79
2022/10/13 03:52:43;;;;;;;13.40;7.45;;;12.20;83.00;;;;;;5034460;28;20064;-79
2022/10/13 03:55:08;;;;;;;14.00;7.28;;;12.20;83.10;;;;;;5034611;28;20044;-78
2022/10/13 03:57:34;;;;;;;15.23;7.35;;;12.20;83.10;;;;;;5034623;28;20021;-78
2022/10/13 04:00:00;;;;;;;17.08;7.63;;;12.20;83.00;;;;;;5034782;28;20043;-77
2022/10/13 04:02:26;;;;;;;15.80;8.13;;;12.20;83.00;;;;;;5034588;28;20033;-78
2022/10/13 04:04:51;;;;;;;18.55;8.50;;;12.20;83.20;;;;;;5034575;28;20112;-78
2022/10/13 04:07:17;;;;;;;14.02;7.75;;;12.10;83.50;;;;;;5034681;28;20025;-77
2022/10/13 04:09:43;;;;;;;19.95;9.13;;;12.10;83.80;;;;;;5034340;28;20017;-78
2022/10/13 04:12:08;;;;;;;15.75;7.97;;;12.10;83.80;;;;;;5034492;28;20053;-78
2022/10/13 04:14:34;;;;;;;15.77;8.90;;;12.00;83.70;;;;;;5034448;28;20021;-78
2022/10/13 04:16:59;;;;;;;12.95;8.60;;;12.00;83.60;;;;;;5034392;28;20116;-78
2022/10/13 04:19:25;;;;;;;18.25;10.25;;;12.10;84.40;;;;;;5034589;28;20018;-77
2022/10/13 04:21:50;;;;;;;16.48;8.98;;;12.00;83.50;;;;;;5034302;28;20028;-78
2022/10/13 04:24:17;;;;;;;15.38;8.38;;;12.00;83.60;;;;;;5034510;28;20040;-78
2022/10/13 04:26:45;;;;;;;12.32;7.57;;;12.00;83.70;;;;;;5034074;28;20382;-78
2022/10/13 04:29:11;;;;;;;13.10;7.35;;;11.90;83.60;;;;;;5034316;28;20021;-78
2022/10/13 04:31:38;;;;;;;16.98;7.90;;;11.90;84.00;;;;;;5033866;28;20386;-78
2022/10/13 04:34:04;;;;;;;18.40;7.95;;;11.80;84.00;;;;;;5033982;28;20018;-78
2022/10/13 04:36:30;;;;;;;13.20;6.85;;;11.80;83.90;;;;;;5033409;28;20040;-77
2022/10/13 04:38:57;;;;;;;13.27;6.72;;;11.80;84.00;;;;;;5034101;28;20061;-78
2022/10/13 04:41:22;;;;;;;13.73;7.13;;;11.80;84.00;;;;;;5033596;28;20030;-79
2022/10/13 04:43:50;;;;;;;13.43;7.40;;;11.80;84.00;;;;;;5033925;28;20095;-78
2022/10/13 04:46:19;;;;;;;17.27;8.13;;;11.80;83.90;;;;;;5034040;28;20025;-77
2022/10/13 04:48:46;;;;;;;12.52;7.30;;;11.80;83.80;;;;;;5033757;28;20473;-77
2022/10/13 04:51:15;;;;;;;13.15;7.40;;;11.70;83.90;;;;;;5033453;28;20025;-78
2022/10/13 04:53:41;;;;;;;13.23;7.65;;;11.70;84.10;;;;;;5033713;28;20021;-79
2022/10/13 04:56:09;;;;;;;12.10;8.05;;;11.70;84.10;;;;;;5034697;28;20105;-77
2022/10/13 04:58:36;;;;;;;15.75;8.60;;;11.70;84.10;;;;;;5033395;28;20032;-78
2022/10/13 05:01:03;;;;;;;24.42;8.82;;;11.60;84.10;;;;;;5033605;28;20121;-77
2022/10/13 05:03:29;;;;;;;23.75;10.48;;;11.60;84.30;;;;;;5033154;28;20079;-77
2022/10/13 05:05:55;;;;;;;19.58;9.15;;;11.60;84.40;;;;;;5033556;28;20025;-77
2022/10/13 05:08:21;;;;;;;19.15;9.93;;;11.60;84.40;;;;;;5032925;28;20021;-77
2022/10/13 05:10:59;;;;;;;17.02;9.98;;;11.60;84.50;;;;;;5033281;28;20017;-76
2022/10/13 05:13:26;;;;;;;15.98;9.38;;;11.50;84.60;;;;;;5033256;28;20017;-77
2022/10/13 05:15:52;;;;;;;15.27;8.25;;;11.50;84.70;;;;;;5032693;28;20390;-76
2022/10/13 05:18:18;;;;;;;20.05;9.25;;;11.50;84.60;;;;;;5033162;28;20029;-77
2022/10/13 05:20:43;;;;;;;15.70;8.23;;;11.50;84.50;;;;;;5034254;28;20494;-76
2022/10/13 05:23:09;;;;;;;14.85;9.25;;;11.50;84.50;;;;;;5033960;28;20533;-76
2022/10/13 05:25:35;;;;;;;18.50;8.93;;;11.50;84.40;;;;;;5033907;28;20033;-76
2022/10/13 05:28:03;;;;;;;17.13;10.52;;;11.50;84.20;;;;;;5032239;28;20077;-76
2022/10/13 05:30:28;;;;;;;15.80;9.68;;;11.50;84.20;;;;;;5032188;28;20052;-77
2022/10/13 05:32:54;;;;;;;19.48;9.23;;;11.50;84.30;;;;;;5033588;28;20030;-77
2022/10/13 05:35:21;;;;;;;17.38;10.55;;;11.50;84.40;;;;;;5032688;28;20037;-76
2022/10/13 05:37:50;;;;;;;20.05;11.20;;;11.50;84.20;;;;;;5032554;28;20038;-78
2022/10/13 05:40:20;;;;;;;18.77;10.50;;;11.50;84.40;;;;;;5032933;28;20044;-78
2022/10/13 05:42:46;;;;;;;21.52;9.63;;;11.60;84.80;;;;;;5032538;28;20079;-78
2022/10/13 05:45:11;;;;;;;16.85;9.68;;;11.60;84.20;;;;;;5032265;28;20608;-78
2022/10/13 05:47:37;;;;;;;16.77;8.75;;;11.60;84.10;;;;;;5031567;28;20040;-78
2022/10/13 05:50:03;;;;;;;15.13;9.10;;;11.60;84.00;;;;;;5032056;28;20390;-79
2022/10/13 05:52:32;;;;;;;16.65;9.50;;;11.60;83.90;;;;;;5032233;28;20033;-76
2022/10/13 05:55:01;;;;;;;17.58;10.55;;;11.60;84.00;;;;;;5032550;28;20029;-78
2022/10/13 05:57:35;;;;;;;18.85;10.77;;;11.60;84.10;;;;;;5032207;28;20478;-79
2022/10/13 06:00:04;;;;;;;19.13;9.95;;;11.60;84.30;;;;;;5032244;28;20446;-77
2022/10/13 06:02:35;;;;;;;15.80;9.68;;;11.60;84.30;;;;;;5031960;28;20083;-77
2022/10/13 06:05:02;;;;;;;18.02;10.10;;;11.60;84.30;;;;;;5032224;28;20500;-76
2022/10/13 06:07:28;;;;;;;18.80;10.13;;;11.60;84.50;;;;;;5031786;28;20056;-78
2022/10/13 06:09:56;;;;;;;13.93;9.50;;;11.60;84.60;;;;;;5031624;28;20021;-80
2022/10/13 06:12:21;;;;;;;18.25;9.45;;;11.70;84.60;;;;;;5031732;28;20032;-79
2022/10/13 06:14:47;;;;;;;17.20;9.93;;;11.70;84.40;;;;;;5031542;28;20026;-79
2022/10/13 06:17:13;;;;;;;19.27;9.27;;;11.80;84.10;;;;;;5031608;28;20866;-79
2022/10/13 06:19:39;;;;;;;19.45;9.93;;;11.80;83.70;;;;;;5031701;28;20064;-79
2022/10/13 06:22:04;;;;;;;20.30;9.25;;;11.90;83.60;;;;;;5031839;28;20059;-78
2022/10/13 06:24:30;;;;;;;22.60;10.25;;;11.90;83.50;;;;;;5031249;28;20029;-77
2022/10/13 06:26:56;;;;;;;16.00;10.20;;;12.00;83.50;;;;;;5030576;28;20045;-77
2022/10/13 06:29:22;;;;;;;23.63;10.18;;;12.00;83.40;;;;;;5031804;28;20028;-77
2022/10/13 06:31:48;;;;;;;18.60;8.65;;;12.00;83.40;;;;;;5031508;28;20029;-79
2022/10/13 06:34:14;;;;;;;15.55;9.27;;;12.00;83.50;;;;;;5031859;28;20080;-78
2022/10/13 06:36:40;;;;;;;17.63;8.82;;;12.10;83.40;;;;;;5031834;28;20021;-77
2022/10/13 06:39:06;;;;;;;17.15;10.45;;;12.10;83.60;;;;;;5032535;28;20021;-76
2022/10/13 06:41:32;;;;;;;14.55;10.15;;;12.20;83.60;;;;;;5031626;28;20032;-77
2022/10/13 06:43:58;;;;;;;20.98;11.20;;;12.20;84.20;;;;;;5032230;28;20390;-79
2022/10/13 06:46:23;;;;;;;19.70;11.13;;;12.20;83.50;;;;;;5032707;28;20492;-78
2022/10/13 06:48:50;;;;;;;15.70;9.02;;;12.30;83.70;;;;;;5032711;28;20390;-78
2022/10/13 06:51:16;;;;;;;20.05;10.90;;;12.30;83.70;;;;;;5016908;28;20021;-78
2022/10/13 06:53:42;;;;;;;17.90;9.27;;;12.40;83.40;;;;;;5032784;28;20053;-79
2022/10/13 06:56:10;;;;;;;15.15;8.02;;;12.50;83.40;;;;;;5032820;28;20485;-79
2022/10/13 06:58:37;;;;;;;17.80;9.07;;;12.60;82.80;;;;;;5017472;28;20116;-79
2022/10/13 07:01:15;;;;;;;14.60;7.82;;;12.70;82.40;;;;;;5036763;28;20482;-80
2022/10/13 07:03:41;;;;;;;16.70;9.15;;;12.80;82.30;;;;;;5037014;28;20083;-78
2022/10/13 07:06:07;;;;;;;19.63;9.82;;;12.80;81.70;;;;;;5036693;28;20022;-78
2022/10/13 07:08:35;;;;;;;15.88;9.65;;;12.90;81.40;;;;;;5036919;28;20025;-78
2022/10/13 07:11:09;;;;;;;15.52;9.27;;;13.00;81.20;;;;;;5036957;28;20112;-79
2022/10/13 07:13:36;;;;;;;15.60;8.80;;;13.00;81.30;;;;;;5036456;28;20469;-76
2022/10/13 07:16:03;;;;;;;17.60;9.70;;;13.10;82.70;;;;;;5018884;28;20037;-76
2022/10/13 07:18:29;;;;;;;18.02;9.93;;;13.20;81.60;;;;;;5035230;28;20057;-77
2022/10/13 07:20:56;;;;;;;19.58;9.30;;;13.40;81.10;;;;;;5035737;28;20060;-76
2022/10/13 07:23:22;;;;;;;16.65;8.52;;;13.50;80.30;;;;;;5035981;28;20037;-77
2022/10/13 07:25:49;;;;;;;15.63;8.07;;;13.60;79.90;;;;;;5019060;28;20095;-77
2022/10/13 07:28:14;;;;;;;15.80;8.85;;;13.60;79.10;;;;;;5035824;28;20046;-77
2022/10/13 07:30:40;;;;;;;17.20;8.18;;;13.60;79.30;;;;;;5035562;28;20036;-78
2022/10/13 07:33:06;;;;;;;15.48;7.95;;;13.80;81.40;;;;;;5035111;28;20033;-78
2022/10/13 07:35:31;;;;;;;15.23;9.07;;;14.10;80.80;;;;;;5035168;28;20064;-77
2022/10/13 07:37:57;;;;;;;15.20;7.32;;;14.30;78.60;;;;;;5034810;28;20378;-77
2022/10/13 07:40:23;;;;;;;18.55;8.82;;;14.50;77.10;;;;;;5034559;28;20025;-76
2022/10/13 07:42:49;;;;;;;14.27;7.68;;;14.60;75.90;;;;;;5034252;28;20474;-76
2022/10/13 07:45:15;;;;;;;17.90;9.05;;;14.80;75.00;;;;;;5034492;28;20071;-76
2022/10/13 07:47:40;;;;;;;19.08;9.00;;;14.90;74.60;;;;;;5034615;28;20025;-74
2022/10/13 07:50:06;;;;;;;15.35;9.20;;;14.90;74.10;;;;;;5034419;28;20026;-77
2022/10/13 07:52:34;;;;;;;15.07;8.65;;;14.80;74.20;;;;;;5033786;28;20033;-78
2022/10/13 07:55:00;;;;;;;16.40;8.38;;;14.70;75.00;;;;;;5034032;28;20112;-80
2022/10/13 07:57:26;;;;;;;17.75;9.45;;;14.80;74.80;;;;;;5034451;28;20469;-79
2022/10/13 07:59:52;;;;;;;17.33;9.70;;;14.70;75.10;;;;;;5034229;28;20437;-80
2022/10/13 08:02:18;;;;;;;19.70;9.55;;;14.80;74.90;;;;;;5051126;28;20531;-78
2022/10/13 08:04:44;;;;;;;19.75;8.75;;;14.70;74.90;;;;;;5050907;28;20033;-79
2022/10/13 08:07:10;;;;;;;21.92;9.55;;;14.70;74.90;;;;;;5034694;28;20481;-80
2022/10/13 08:09:35;;;;;;;22.55;9.48;;;14.80;74.80;;;;;;5033775;28;20037;-81
2022/10/13 08:12:01;;;;;;;23.67;9.52;;;14.80;74.80;;;;;;5033788;28;20470;-79
2022/10/13 08:14:27;;;;;;;18.33;9.20;;;14.80;74.80;;;;;;5034006;28;20497;-79
2022/10/13 08:16:53;;;;;;;17.45;9.52;;;14.80;74.70;;;;;;5051093;28;20542;-77
2022/10/13 08:19:20;;;;;;;21.63;8.95;;;14.80;74.90;;;;;;5034413;28;20033;-77
2022/10/13 08:21:47;;;;;;;16.08;8.63;;;14.80;75.10;;;;;;5040488;28;20021;-81
2022/10/13 08:24:16;;;;;;;18.73;8.85;;;14.90;75.60;;;;;;5023522;28;20037;-81
2022/10/13 08:26:45;;;;;;;22.13;9.00;;;15.00;74.00;;;;;;5014219;28;20042;-81
2022/10/13 08:29:13;;;;;;;17.08;8.77;;;15.00;74.00;;;;;;5014381;28;20032;-80
2022/10/13 08:31:40;;;;;;;13.55;8.07;;;15.00;73.80;;;;;;5013744;28;20038;-80
2022/10/13 08:34:05;;;;;;;15.73;8.73;;;15.10;73.80;;;;;;5013798;28;20528;-84
2022/10/13 08:36:31;;;;;;;16.95;7.90;;;15.10;73.40;;;;;;5013522;28;20026;-83
2022/10/13 08:38:56;;;;;;;14.07;8.23;;;15.20;73.40;;;;;;5014047;28;20030;-79
2022/10/13 08:41:44;;;;;;;17.95;7.97;;;15.20;73.10;;;;;;5013860;28;20026;-76
2022/10/13 08:44:20;;;;;;;17.05;8.30;;;15.20;73.50;;;;;;5013280;28;20112;-75
2022/10/13 08:47:07;;;;;;;13.88;7.38;;;15.20;72.90;;;;;;5014095;28;20026;-76
2022/10/13 08:49:33;;;;;;;16.63;8.05;;;15.20;72.50;;;;;;5015374;28;20033;-79
2022/10/13 08:52:03;;;;;;;14.93;7.50;;;15.30;72.60;;;;;;5013793;28;20038;-75
2022/10/13 08:54:29;;;;;;;15.90;8.05;;;15.30;72.60;;;;;;5013282;28;20022;-77
2022/10/13 08:56:55;;;;;;;12.85;7.78;;;15.30;72.30;;;;;;5013497;28;20363;-77
2022/10/13 08:59:20;;;;;;;17.08;7.78;;;15.40;72.00;;;;;;5013422;28;20552;-74
2022/10/13 09:01:50;;;;;;;20.65;7.75;;;15.40;71.90;;;;;;5013119;28;20336;-78
2022/10/13 09:04:40;;;;;;;19.90;7.53;;;15.50;71.50;;;;;;5013372;28;20120;-80
2022/10/13 09:07:24;;;;;;;13.70;7.70;;;15.60;71.20;;;;;;5012876;28;20025;-78
2022/10/13 09:09:52;;;;;;;15.70;7.43;;;15.70;70.70;;;;;;5013414;28;20386;-76
2022/10/13 09:12:22;;;;;;;16.58;7.50;;;15.70;70.60;;;;;;5013218;28;20038;-75
2022/10/13 09:15:03;;;;;;;13.70;7.50;;;15.80;70.00;;;;;;5013371;28;20029;-76
2022/10/13 09:17:30;;;;;;;12.13;7.30;;;15.80;70.30;;;;;;5013257;28;20018;-76
2022/10/13 09:20:06;;;;;;;16.85;7.00;;;15.80;70.20;;;;;;5013084;28;20402;-75
2022/10/13 09:22:33;;;;;;;13.73;7.20;;;15.80;70.60;;;;;;5012886;28;20147;-75
2022/10/13 09:25:19;;;;;;;18.42;8.20;;;15.90;70.20;;;;;;5012898;28;20133;-79
2022/10/13 09:27:44;;;;;;;;;;;16.00;69.00;;;;;;5013121;28;20045;-79
2022/10/13 09:30:28;;;;;;;17.00;8.30;;;16.10;68.90;;;;;;5012771;28;20011;-75
2022/10/13 09:33:12;;;;;;;12.45;7.65;;;16.30;68.50;;;;;;5012937;28;20048;-77
2022/10/13 09:35:56;;;;;;;14.30;8.68;;;16.30;68.40;;;;;;5012930;28;20033;-75
2022/10/13 09:38:26;;;;;;;18.50;8.75;;;16.30;68.70;;;;;;5012593;28;20026;-77
2022/10/13 09:41:09;;;;;;;16.80;8.35;;;16.40;68.30;;;;;;5012616;28;20022;-76
2022/10/13 09:43:57;;;;;;;15.13;8.23;;;16.40;68.70;;;;;;5013161;28;20040;-76
2022/10/13 09:46:34;;;;;;;17.88;8.30;;;16.50;67.60;;;;;;5013129;28;20068;-76
2022/10/13 09:49:07;;;;;;;18.02;9.02;;;16.50;67.50;;;;;;5012507;28;20057;-79
2022/10/13 09:51:39;;;;;;;17.67;9.50;;;16.40;67.50;;;;;;5012945;28;20022;-80
2022/10/13 09:54:23;;;;;;;16.83;8.00;;;16.40;67.90;;;;;;5012522;28;20022;-77
2022/10/13 09:57:01;;;;;;;17.25;8.75;;;16.40;68.10;;;;;;5012130;28;20029;-79
2022/10/13 09:59:34;;;;;;;18.52;8.77;;;16.30;67.90;;;;;;5012026;28;20149;-78
2022/10/13 10:02:27;;;;;;;14.82;8.02;;;16.30;68.30;;;;;;5011934;28;20469;-80
2022/10/13 10:04:54;;;;;;;19.50;8.70;;;16.30;68.50;;;;;;5012817;28;20394;-75
2022/10/13 10:07:24;;;;;;;14.48;7.75;;;16.30;68.50;;;;;;5011239;28;20030;-76
2022/10/13 10:10:05;;;;;;;12.15;7.28;;;16.30;68.20;;;;;;5027969;28;20069;-76
2022/10/13 10:12:36;;;;;;;12.10;7.57;;;16.40;68.20;;;;;;5031436;28;20021;-76
2022/10/13 10:15:04;;;;;;;14.73;5.97;;;16.40;68.40;;;;;;5031378;28;20156;-76
2022/10/13 10:17:59;;;;;;;14.93;8.23;;;16.50;68.40;;;;;;5031364;28;20021;-75
2022/10/13 10:20:46;;;;;;;16.75;7.72;;;16.60;67.80;;;;;;5009143;28;20037;-74
2022/10/13 10:23:24;;;;;;;19.27;7.65;;;16.60;68.20;;;;;;5011932;28;20463;-75
2022/10/13 10:25:56;;;;;;;16.42;8.02;;;16.60;67.60;;;;;;5011512;28;20022;-76
2022/10/13 10:28:45;;;;;;;19.38;8.38;;;16.70;67.40;;;;;;4995360;28;20050;-76
2022/10/13 10:31:11;;;;;;;12.10;7.43;;;16.70;67.20;;;;;;5027553;28;20394;-76
2022/10/13 10:33:39;;;;;;;11.77;7.57;;;16.60;67.30;;;;;;5011258;28;20022;-79
2022/10/13 10:36:17;;;;;;;11.95;6.30;;;16.60;67.40;;;;;;5011490;28;20052;-78
2022/10/13 10:39:00;;;;;;;13.98;7.22;;;16.70;67.70;;;;;;5011407;28;20121;-76
2022/10/13 10:41:49;;;;;;;14.02;8.05;;;16.70;67.50;;;;;;5011665;28;20040;-76
2022/10/13 10:44:29;;;;;;;14.50;6.90;;;16.60;67.60;;;;;;5011633;28;20041;-79
2022/10/13 10:47:01;;;;;;;11.27;6.00;;;16.60;67.80;;;;;;5011944;28;20018;-79
2022/10/13 10:49:35;;;;;;;12.38;6.15;;;16.70;67.70;;;;;;5012765;28;20022;-78
2022/10/13 10:52:05;;;;;;;15.07;7.38;;;16.60;66.90;;;;;;5011443;28;20036;-79
2022/10/13 10:54:48;;;;;;;10.75;7.47;;;16.60;67.30;;;;;;5010880;28;20026;-75
2022/10/13 10:57:24;;;;;;;14.45;6.15;;;16.60;67.50;;;;;;5010983;28;20041;-76
2022/10/13 11:00:03;;;;;;;15.65;6.68;;;16.60;67.40;;;;;;5010922;28;20080;-73
2022/10/13 11:02:48;;;;;;;16.58;7.05;;;16.70;67.50;;;;;;5010921;28;20041;-74
2022/10/13 11:05:15;;;;;;;14.13;6.38;;;16.90;67.40;;;;;;5010374;28;20022;-74
2022/10/13 11:07:46;;;;;;;12.80;6.43;;;16.80;66.30;;;;;;5011472;28;20117;-77
2022/10/13 11:10:12;;;;;;;13.07;5.97;;;16.80;66.20;;;;;;5011142;28;20022;-75
2022/10/13 11:12:49;;;;;;;10.75;5.97;;;16.90;66.50;;;;;;5011065;28;20429;-77
2022/10/13 11:15:26;;;;;;;13.27;5.38;;;16.90;66.70;;;;;;5028294;28;20076;-78
2022/10/13 11:17:52;;;;;;;9.05;4.88;;;17.10;66.70;;;;;;5029069;28;20014;-76
2022/10/13 11:20:20;;;;;;;11.68;5.25;;;17.30;65.60;;;;;;5030126;28;20421;-75
2022/10/13 11:22:58;;;;;;;10.30;5.40;;;17.40;65.10;;;;;;5029923;28;20030;-76
2022/10/13 11:25:42;;;;;;;9.45;4.60;;;17.50;64.30;;;;;;5028981;28;20477;-74
2022/10/13 11:28:20;;;;;;;11.07;5.07;;;17.60;63.90;;;;;;5027691;28;20111;-75
2022/10/13 11:30:54;;;;;;;10.88;4.10;;;17.70;63.50;;;;;;5027608;28;20327;-76
2022/10/13 11:33:39;;;;;;;10.18;4.82;;;17.70;63.70;;;;;;5030251;28;20056;-75
2022/10/13 11:36:29;;;;;;;10.27;5.55;;;17.80;64.20;;;;;;5030599;28;20030;-77
2022/10/13 11:39:27;;;;;;;14.05;5.60;;;17.70;63.90;;;;;;5030436;28;20026;-73
2022/10/13 11:42:25;;;;;;;12.10;5.47;;;17.60;63.80;;;;;;5030616;28;20033;-74
2022/10/13 11:44:58;;;;;;;11.20;4.70;;;17.60;64.30;;;;;;5031486;28;20136;-74
2022/10/13 11:48:13;;;;;;;10.57;4.68;;;17.60;64.50;;;;;;5033664;28;20547;-74
2022/10/13 11:51:24;;;;;;;8.65;4.35;;;17.70;64.50;;;;;;5017274;28;20033;-74
2022/10/13 11:54:17;;;;;;;8.20;4.40;;;18.10;63.60;;;;;;5031759;28;20064;-74
2022/10/13 11:56:52;;;;;;;11.07;4.22;;;18.50;62.10;;;;;;5033801;28;20032;-74
2022/10/13 11:59:30;;;;;;;10.82;2.95;;;18.80;59.90;;;;;;5042171;28;20025;-74
2022/10/13 12:01:58;;;;;;;11.13;3.80;;;19.10;57.40;;;;;;5024053;28;20030;-76
2022/10/13 12:04:26;;;;;;;10.88;3.53;;;19.40;55.70;;;;;;5026008;28;20140;-74
2022/10/13 12:07:08;;;;;;;9.30;3.00;;;19.70;54.10;;;;;;5035527;28;20028;-77
2022/10/13 12:09:39;;;;;;;8.18;3.33;;;19.70;52.30;;;;;;5035210;28;20029;-77
2022/10/13 12:12:17;;;;;;;9.07;2.92;;;19.50;52.50;;;;;;5041867;28;20051;-76
2022/10/13 12:14:49;;;;;;;7.28;2.90;;;19.80;53.20;;;;;;5036920;28;20451;-77
2022/10/13 12:17:27;;;;;;;5.40;2.60;;;19.90;52.40;;;;;;5035351;28;20484;-77
2022/10/13 12:20:02;;;;;;;11.13;2.70;;;19.70;51.60;;;;;;5035160;28;20018;-77
2022/10/13 12:22:29;;;;;;;10.48;3.38;;;19.60;52.40;;;;;;5033792;28;20061;-76
2022/10/13 12:25:05;;;;;;;8.18;3.20;;;19.30;53.00;;;;;;5034013;28;20026;-80
2022/10/13 12:27:43;;;;;;;6.57;2.58;;;19.20;53.70;;;;;;5033500;28;20136;-75
2022/10/13 12:30:26;;;;;;;9.82;2.92;;;18.90;53.70;;;;;;5033761;28;20355;-76
2022/10/13 12:32:55;;;;;;;11.35;3.15;;;18.50;55.20;;;;;;5034125;28;20116;-74
2022/10/13 12:35:31;;;;;;;12.50;2.88;;;18.60;55.20;;;;;;5033340;28;20355;-74
2022/10/13 12:38:01;;;;;;;8.88;3.28;;;18.70;55.70;;;;;;5034316;28;20119;-73
2022/10/13 12:40:27;;;;;;;7.82;3.15;;;18.80;55.50;;;;;;5033565;28;20116;-76
2022/10/13 12:42:53;;;;;;;10.75;4.03;;;19.20;54.60;;;;;;5033009;28;20131;-75
2022/10/13 12:45:23;;;;;;;11.48;3.88;;;19.30;55.10;;;;;;5033754;28;20068;-75
2022/10/13 12:47:54;;;;;;;14.68;3.83;;;19.40;53.60;;;;;;5033556;28;20026;-78
2022/10/13 12:50:29;;;;;;;9.90;3.40;;;19.60;52.60;;;;;;5033625;28;20056;-76
2022/10/13 12:53:15;;;;;;;6.63;3.10;;;19.50;53.30;;;;;;5033726;28;20168;-79
2022/10/13 12:55:54;;;;;;;9.23;3.20;;;19.50;52.50;;;;;;5033321;28;20025;-76